Aérodrome :
LOGIN :

S'inscrire | Disclaimer

   EN    FR    IT 

 










Légende :    VFR   VFR Marginal   IFR   IFR Intensif   IFR Très Intensif
Visi : 
Plafond : 
>= 8 km
>= 3000ft
5 à 8 km
1000 à 3000 ft
1500m à 5 km
500 à 1000 ft
800 à 1500m
200 à 500 ft
< 800m
< 200 ft
Symboles :   Orages  Brouillard  Fortes neiges  Fortes précipitations  Vent > 20 kt
SIGMETs :   Divers  Orages  Givrage  Turbulence  Onde Orograph.  Cendres Volcan.







- Altitude de l'aérodrome : 297 ft
- Code IATA : UIP
- Voir les cartes d'approche


LFRQ - Quimper Pluguffan

DERNIER METAR :
  • 230000Z AUTO 23006KT 9999 FEW024 BKN046 OVC100 13/11 Q1024

METARs EXPIRÉS :
  • 222330Z AUTO 22005KT 190V250 9999 OVC043 13/11 Q1024
  • 222300Z AUTO 22003KT 9999 SCT020 BKN043 OVC110 13/10 Q1024
  • 222230Z AUTO 24004KT CAVOK 12/10 Q1024
  • 222200Z AUTO 25006KT 210V270 CAVOK 12/10 Q1024 NOSIG
  • 222130Z AUTO 24005KT 9999 BKN035 BKN046 OVC130 12/10 Q1024 NOSIG

TAF TAF LFRQ
Valide du 22 à 18h jusqu'au 23 à 03h UTC


221700Z 2218/2303 24007KT 9999 SCT025 BKN035
BECMG 2302/2303 BKN008
Pas de NOTAMs connus pour ce terrain.



MET'MAP, la Météo Aéronautique d'un coup d'oeil ! - Copyright ORBIFLY Décembre 2007 - Disclaimer

ORBIFLY MET'MAP TEAM :

Programmation & Développement : Alexandra Zaïnal
Conception & Développement : Baudouin d'Aumeries
Co-Programmation & Développement : Marc-Olivier Méhu
Soutien technique & logistique : Manuel Goepfert

Contact : metmap@orbifly.com




SOURCES & CREDITS :

   NOAA